C15 weather

Pekin Municipal Airport
Pekin, Illinois, United States

Public forecast

Using degrees Fahrenheit for public forecast. Weather courtesy of forecast.io.

Closest aviation weather report (METAR) to Pekin Municipal Airport

Closest report is General Wayne A. Downing Peoria International Airport, 10.6 nm (19.6 km) N. Retrieved 2020/05/31 15:54 UTC (32 minutes ago):

KPIA 311554Z VRB03KT 10SM CLR 20/09 A3034 RMK AO2 SLP273 T02000094

Closest aviation forecast (TAF) to Pekin Municipal Airport

Closest forecast is General Wayne A. Downing Peoria International Airport, 10.6 nm (19.6 km) N. Retrieved 2020/05/31 13:40 UTC (3 hours ago):

TAF KPIA 311237Z 3113/0112 08007KT P6SM FEW250 FM311500 12007KT P6SM SCT250 FM312000 15007KT P6SM BKN250 FM010900 15006KT P6SM BKN100